createdAt,value
2022-10-30T00:01:56.333Z,16.74
2022-10-30T00:07:06.836Z,16.71
2022-10-30T00:12:19.406Z,16.67
2022-10-30T00:17:32.300Z,16.61
2022-10-30T00:22:43.711Z,16.55
2022-10-30T00:28:00.187Z,16.57
2022-10-30T00:33:27.398Z,16.55
2022-10-30T00:38:53.420Z,16.52
2022-10-30T00:44:03.521Z,16.42
2022-10-30T00:49:26.178Z,16.38
2022-10-30T00:54:47.962Z,16.35
2022-10-30T01:05:32.483Z,16.31
2022-10-30T01:16:36.773Z,16.21
2022-10-30T01:22:14.240Z,16.19
2022-10-30T01:27:44.209Z,16.18
2022-10-30T01:33:22.408Z,16.20
2022-10-30T01:38:41.917Z,16.24
2022-10-30T01:44:06.825Z,16.27
2022-10-30T01:49:53.775Z,16.30
2022-10-30T01:55:21.067Z,16.27
2022-10-30T02:00:54.144Z,16.27
2022-10-30T02:06:06.286Z,16.32
2022-10-30T02:11:20.257Z,16.34
2022-10-30T02:16:30.377Z,16.38
2022-10-30T02:21:44.607Z,16.42
2022-10-30T02:27:11.856Z,16.46
2022-10-30T02:32:16.490Z,16.48
2022-10-30T02:37:34.038Z,16.51
2022-10-30T02:42:42.363Z,16.53
2022-10-30T02:48:12.711Z,16.55
2022-10-30T02:53:22.513Z,16.57
2022-10-30T02:58:39.236Z,16.58
2022-10-30T03:03:46.273Z,16.59
2022-10-30T03:09:17.623Z,16.63
2022-10-30T03:14:41.178Z,16.62
2022-10-30T03:19:57.027Z,16.59
2022-10-30T03:25:10.424Z,16.59
2022-10-30T03:30:23.674Z,16.57
2022-10-30T03:35:31.401Z,16.49
2022-10-30T03:40:46.362Z,16.42
2022-10-30T03:46:01.520Z,16.37
2022-10-30T03:51:12.140Z,16.38
2022-10-30T03:56:45.654Z,16.42
2022-10-30T04:02:08.523Z,16.44
2022-10-30T04:07:21.872Z,16.48
2022-10-30T04:12:30.205Z,16.49
2022-10-30T04:17:45.798Z,16.50
2022-10-30T04:23:06.871Z,16.51
2022-10-30T04:28:29.481Z,16.50
2022-10-30T04:33:48.803Z,16.49
2022-10-30T04:39:04.473Z,16.48
2022-10-30T04:44:15.414Z,16.43
2022-10-30T04:49:44.224Z,16.38
2022-10-30T04:55:00.019Z,16.39
2022-10-30T05:00:23.832Z,16.36
2022-10-30T05:05:46.485Z,16.27
2022-10-30T05:10:55.830Z,16.23
2022-10-30T05:16:26.047Z,16.22
2022-10-30T05:21:43.925Z,16.22
2022-10-30T05:26:56.239Z,16.21
2022-10-30T05:32:15.715Z,16.23
2022-10-30T05:37:21.785Z,16.23
2022-10-30T05:42:40.172Z,16.26
2022-10-30T05:48:04.430Z,16.36
2022-10-30T05:53:11.665Z,16.40
2022-10-30T05:58:23.967Z,16.38
2022-10-30T06:03:42.435Z,16.42
2022-10-30T06:09:00.290Z,16.43
2022-10-30T06:14:18.416Z,16.45
2022-10-30T06:19:35.471Z,16.43
2022-10-30T06:24:45.675Z,16.40
2022-10-30T06:30:00.463Z,16.40
2022-10-30T06:35:13.370Z,16.40
2022-10-30T06:40:23.988Z,16.40
2022-10-30T06:45:46.206Z,16.47
2022-10-30T06:51:04.813Z,16.55
2022-10-30T06:56:12.379Z,16.58
2022-10-30T07:01:21.240Z,16.65
2022-10-30T07:06:31.298Z,16.79
2022-10-30T07:17:11.514Z,16.93
2022-10-30T07:22:20.049Z,16.97
2022-10-30T07:28:02.739Z,17.01
2022-10-30T07:33:14.804Z,17.01
2022-10-30T07:38:55.839Z,17.08
2022-10-30T07:44:22.391Z,17.18
2022-10-30T07:49:54.686Z,17.26
2022-10-30T07:55:01.434Z,17.35
2022-10-30T08:00:16.737Z,17.40
2022-10-30T08:05:49.218Z,17.42
2022-10-30T08:11:09.696Z,17.46
2022-10-30T08:16:17.789Z,17.49
2022-10-30T08:21:25.855Z,17.56
2022-10-30T08:26:32.688Z,17.56
2022-10-30T08:31:44.081Z,17.55
2022-10-30T08:43:39.145Z,17.66
2022-10-30T08:48:43.281Z,17.89
2022-10-30T08:54:02.463Z,18.09
2022-10-30T08:59:15.695Z,18.32
2022-10-30T09:04:29.074Z,18.54
2022-10-30T09:09:41.497Z,18.77
2022-10-30T09:14:58.121Z,18.96
2022-10-30T09:20:09.192Z,19.25
2022-10-30T09:25:26.487Z,19.54
2022-10-30T09:30:50.557Z,19.81
2022-10-30T09:36:10.098Z,20.09
2022-10-30T09:41:31.677Z,20.34
2022-10-30T09:47:05.597Z,20.58
2022-10-30T09:52:32.492Z,20.83
2022-10-30T09:57:51.841Z,21.07
2022-10-30T10:03:24.962Z,21.32
2022-10-30T10:08:39.227Z,21.51
2022-10-30T10:19:09.326Z,21.84
2022-10-30T10:24:34.845Z,21.98
2022-10-30T10:30:01.799Z,22.08
2022-10-30T10:35:39.165Z,22.20
2022-10-30T10:41:08.176Z,22.29
2022-10-30T10:46:32.722Z,22.37
2022-10-30T10:52:01.050Z,22.55
2022-10-30T10:57:08.252Z,22.67
2022-10-30T11:03:04.585Z,22.82
2022-10-30T11:08:20.009Z,22.94
2022-10-30T11:13:31.290Z,23.02
2022-10-30T11:18:42.193Z,23.05
2022-10-30T11:23:52.558Z,23.14
2022-10-30T11:29:04.575Z,23.28
2022-10-30T11:34:35.264Z,23.42
2022-10-30T11:45:25.454Z,23.50
2022-10-30T11:50:33.806Z,23.55
2022-10-30T11:55:49.894Z,23.61
2022-10-30T12:01:18.330Z,23.69
2022-10-30T12:06:30.853Z,23.75
2022-10-30T12:11:56.885Z,23.75
2022-10-30T12:17:07.698Z,23.74
2022-10-30T12:22:16.290Z,23.77
2022-10-30T12:27:23.417Z,23.78
2022-10-30T12:32:39.712Z,23.80
2022-10-30T12:37:45.676Z,23.79
2022-10-30T12:43:09.457Z,23.81
2022-10-30T12:48:29.479Z,23.83
2022-10-30T12:53:48.354Z,23.78
2022-10-30T12:59:06.858Z,23.76
2022-10-30T13:04:26.955Z,23.72
2022-10-30T13:09:44.659Z,23.70
2022-10-30T13:14:58.415Z,23.68
2022-10-30T13:20:05.058Z,23.65
2022-10-30T13:25:20.784Z,23.60
2022-10-30T13:30:31.853Z,23.54
2022-10-30T13:35:45.159Z,23.51
2022-10-30T13:46:31.809Z,23.44
2022-10-30T13:51:43.891Z,23.39
2022-10-30T13:56:56.296Z,23.35
2022-10-30T14:02:19.318Z,23.28
2022-10-30T14:07:37.044Z,23.25
2022-10-30T14:12:50.074Z,23.19
2022-10-30T14:18:34.992Z,23.16
2022-10-30T14:23:42.837Z,23.05
2022-10-30T14:28:51.864Z,22.99
2022-10-30T14:34:13.160Z,22.90
2022-10-30T14:39:41.609Z,22.83
2022-10-30T14:45:15.901Z,22.74
2022-10-30T14:50:48.801Z,22.59
2022-10-30T14:56:02.220Z,22.35
2022-10-30T15:01:37.134Z,22.21
2022-10-30T15:06:56.481Z,22.02
2022-10-30T15:12:38.566Z,21.89
2022-10-30T15:17:54.975Z,21.72
2022-10-30T15:23:04.511Z,21.58
2022-10-30T15:28:20.327Z,21.38
2022-10-30T15:33:26.652Z,21.23
2022-10-30T15:38:33.156Z,21.07
2022-10-30T15:43:42.404Z,20.93
2022-10-30T15:48:58.012Z,20.78
2022-10-30T15:54:06.989Z,20.62
2022-10-30T15:59:20.521Z,20.45
2022-10-30T16:04:30.297Z,20.30
2022-10-30T16:09:35.842Z,20.14
2022-10-30T16:14:44.163Z,19.98
2022-10-30T16:19:54.344Z,19.84
2022-10-30T16:25:00.721Z,19.69
2022-10-30T16:30:13.776Z,19.56
2022-10-30T16:35:24.567Z,19.43
2022-10-30T16:40:30.756Z,19.30
2022-10-30T16:45:55.381Z,19.19
2022-10-30T16:51:16.125Z,19.04
2022-10-30T16:56:28.130Z,18.90
2022-10-30T17:01:39.340Z,18.79
2022-10-30T17:06:51.998Z,18.68
2022-10-30T17:12:18.633Z,18.59
2022-10-30T17:18:09.699Z,18.47
2022-10-30T17:23:24.762Z,18.35
2022-10-30T17:28:37.487Z,18.26
2022-10-30T17:33:46.871Z,18.17
2022-10-30T17:38:55.686Z,18.08
2022-10-30T17:44:03.783Z,18.00
2022-10-30T17:49:26.775Z,17.94
2022-10-30T17:54:43.593Z,17.84
2022-10-30T17:59:55.839Z,17.77
2022-10-30T18:05:21.450Z,17.71
2022-10-30T18:10:29.757Z,17.65
2022-10-30T18:15:37.931Z,17.59
2022-10-30T18:20:46.382Z,17.53
2022-10-30T18:25:57.420Z,17.49
2022-10-30T18:31:02.459Z,17.43
2022-10-30T18:36:16.163Z,17.37
2022-10-30T18:41:30.582Z,17.31
2022-10-30T18:47:03.125Z,17.25
2022-10-30T18:52:12.866Z,17.19
2022-10-30T18:57:25.520Z,17.13
2022-10-30T19:02:37.737Z,17.09
2022-10-30T19:07:43.573Z,17.02
2022-10-30T19:13:14.718Z,16.97
2022-10-30T19:18:24.529Z,16.90
2022-10-30T19:23:28.640Z,16.84
2022-10-30T19:28:35.499Z,16.78
2022-10-30T19:33:42.419Z,16.74
2022-10-30T19:38:46.317Z,16.69
2022-10-30T19:44:02.423Z,16.64
2022-10-30T19:49:21.685Z,16.59
2022-10-30T19:54:27.284Z,16.51
2022-10-30T19:59:33.370Z,16.46
2022-10-30T20:04:39.774Z,16.41
2022-10-30T20:09:46.573Z,16.35
2022-10-30T20:14:54.874Z,16.32
2022-10-30T20:20:03.406Z,16.26
2022-10-30T20:25:19.102Z,16.23
2022-10-30T20:30:26.017Z,16.18
2022-10-30T20:35:30.597Z,16.16
2022-10-30T20:40:36.836Z,16.09
2022-10-30T20:45:43.030Z,16.04
2022-10-30T20:51:07.780Z,16.01
2022-10-30T20:56:14.608Z,15.93
2022-10-30T21:01:21.906Z,15.89
2022-10-30T21:06:31.473Z,15.85
2022-10-30T21:11:37.270Z,15.82
2022-10-30T21:16:51.224Z,15.78
2022-10-30T21:21:57.396Z,15.73
2022-10-30T21:27:09.191Z,15.68
2022-10-30T21:32:19.796Z,15.66
2022-10-30T21:37:35.358Z,15.63
2022-10-30T21:42:53.393Z,15.60
2022-10-30T21:48:01.887Z,15.55
2022-10-30T21:53:10.444Z,15.47
2022-10-30T21:58:15.158Z,15.43
2022-10-30T22:03:22.265Z,15.38
2022-10-30T22:08:27.583Z,15.34
2022-10-30T22:13:36.588Z,15.31
2022-10-30T22:18:47.444Z,15.28
2022-10-30T22:23:52.654Z,15.27
2022-10-30T22:29:11.464Z,15.26
2022-10-30T22:34:24.344Z,15.23
2022-10-30T22:39:35.042Z,15.23
2022-10-30T22:50:11.655Z,15.15
2022-10-30T22:55:23.565Z,15.11
2022-10-30T23:00:41.193Z,15.09
2022-10-30T23:06:17.071Z,15.09
2022-10-30T23:11:34.952Z,15.08
2022-10-30T23:16:43.914Z,15.06
2022-10-30T23:22:03.676Z,15.07
2022-10-30T23:27:24.761Z,15.03
2022-10-30T23:32:29.486Z,15.01
2022-10-30T23:37:44.518Z,15.00
2022-10-30T23:43:04.648Z,14.97
2022-10-30T23:48:10.902Z,14.96
2022-10-30T23:53:23.545Z,14.93
2022-10-30T23:58:33.139Z,14.93
